Time;durP1;ratioP1;P1;durP2;ratioP2;P2;SDS_P1;SDS_P2;PMS_P1;PMS_P2;Temp;Humidity;BMP_temperature;BMP_pressure;BME280_temperature;BME280_humidity;BME280_pressure;Samples;Min_cycle;Max_cycle;Signal;HPM_P1;HPM_P2
2023/05/07 04:01:31;;;;;;;0.60;0.10;;;16.60;99.90;;;;;;5580477;23;20572;-74
2023/05/07 04:03:59;;;;;;;0.60;0.20;;;;;;;;;;4956198;29;20446;-72
2023/05/07 04:06:27;;;;;;;0.60;0.37;;;16.50;99.90;;;;;;4956943;29;20484;-72
2023/05/07 04:08:55;;;;;;;0.60;0.10;;;16.50;99.90;;;;;;4956863;29;20465;-72
2023/05/07 04:11:23;;;;;;;0.60;0.13;;;16.50;99.90;;;;;;4968484;28;20468;-72
2023/05/07 04:13:50;;;;;;;0.60;0.20;;;16.50;99.90;;;;;;4975668;28;20441;-73
2023/05/07 04:16:18;;;;;;;0.60;0.20;;;16.40;99.90;;;;;;4989579;23;20489;-72
2023/05/07 04:18:47;;;;;;;0.60;0.10;;;16.40;99.90;;;;;;4965947;28;20441;-72
2023/05/07 04:21:16;;;;;;;0.60;0.40;;;16.30;99.90;;;;;;4973519;29;20817;-72
2023/05/07 04:23:44;;;;;;;0.60;0.10;;;16.40;99.90;;;;;;4975802;28;20477;-72
2023/05/07 04:26:12;;;;;;;0.60;0.10;;;16.40;99.90;;;;;;4975668;28;20483;-72
2023/05/07 04:28:40;;;;;;;0.60;0.20;;;16.40;99.90;;;;;;4965163;29;20447;-72
2023/05/07 04:31:08;;;;;;;0.60;0.10;;;16.50;99.90;;;;;;4963850;29;20504;-73
2023/05/07 04:33:36;;;;;;;0.60;0.20;;;16.50;99.90;;;;;;4958833;28;20514;-72
2023/05/07 04:36:06;;;;;;;0.60;0.10;;;16.50;99.90;;;;;;4957605;28;21071;-72
2023/05/07 04:38:33;;;;;;;0.60;0.10;;;16.50;99.90;;;;;;4958051;29;20462;-73
2023/05/07 04:41:05;;;;;;;0.60;0.10;;;16.50;99.90;;;;;;4957602;29;20939;-72
2023/05/07 04:43:33;;;;;;;0.60;0.10;;;16.50;99.90;;;;;;4957153;29;20493;-71
2023/05/07 04:46:01;;;;;;;0.60;0.10;;;16.60;99.90;;;;;;4959573;28;20473;-71
2023/05/07 04:48:29;;;;;;;0.60;0.20;;;16.60;99.90;;;;;;4959161;29;20815;-71
2023/05/07 04:50:57;;;;;;;0.60;0.10;;;16.60;99.90;;;;;;4961087;29;20457;-71
2023/05/07 04:53:26;;;;;;;0.60;0.10;;;16.70;99.90;;;;;;4958415;29;20460;-71
2023/05/07 04:55:57;;;;;;;0.60;0.20;;;16.70;99.90;;;;;;4957790;28;20525;-72
2023/05/07 04:58:26;;;;;;;0.60;0.10;;;16.70;99.90;;;;;;4958763;28;20466;-71
2023/05/07 05:00:53;;;;;;;0.60;0.10;;;16.70;99.90;;;;;;4961429;29;20457;-72
2023/05/07 05:03:21;;;;;;;0.60;0.10;;;16.70;99.90;;;;;;4960124;29;20443;-71
2023/05/07 05:05:51;;;;;;;0.60;0.20;;;16.50;99.90;;;;;;4959305;28;20459;-71
2023/05/07 05:08:19;;;;;;;0.60;0.10;;;16.50;99.90;;;;;;4957726;29;20493;-72
2023/05/07 05:10:49;;;;;;;0.60;0.10;;;16.50;99.90;;;;;;4963233;28;20447;-72
2023/05/07 05:13:17;;;;;;;2.73;2.63;;;16.40;99.90;;;;;;4975330;28;20451;-73
2023/05/07 05:15:46;;;;;;;0.60;0.10;;;16.40;99.90;;;;;;4974937;28;20544;-71
2023/05/07 05:18:14;;;;;;;0.60;0.10;;;16.50;99.90;;;;;;4962947;28;20443;-72
2023/05/07 05:20:42;;;;;;;0.60;0.10;;;16.40;99.90;;;;;;4955365;29;20453;-72
2023/05/07 05:23:09;;;;;;;0.60;0.10;;;16.50;99.90;;;;;;4955448;29;20449;-71
2023/05/07 05:25:39;;;;;;;0.60;0.10;;;16.50;99.90;;;;;;4955264;28;20462;-72
2023/05/07 05:28:08;;;;;;;0.60;0.20;;;16.60;99.90;;;;;;4955296;29;20450;-72
2023/05/07 05:30:36;;;;;;;0.60;0.20;;;16.60;99.90;;;;;;4954304;29;20464;-72
2023/05/07 05:33:04;;;;;;;0.60;0.10;;;18.20;99.90;;;;;;4954544;28;20874;-72
2023/05/07 05:35:32;;;;;;;0.60;0.10;;;16.70;99.90;;;;;;4955962;28;20485;-73
2023/05/07 05:38:00;;;;;;;0.60;0.10;;;16.70;99.90;;;;;;4956488;29;20474;-72
2023/05/07 05:40:28;;;;;;;0.60;0.10;;;16.90;99.90;;;;;;4955531;29;20805;-72
2023/05/07 05:42:56;;;;;;;0.60;0.20;;;16.90;99.90;;;;;;4955662;29;20442;-72
2023/05/07 05:45:25;;;;;;;0.60;0.10;;;17.00;99.90;;;;;;4955670;28;20473;-72
2023/05/07 05:47:53;;;;;;;0.60;0.10;;;17.00;99.90;;;;;;4955562;29;20446;-72
2023/05/07 05:50:21;;;;;;;0.60;0.10;;;17.00;99.90;;;;;;4955334;29;20447;-72
2023/05/07 05:52:49;;;;;;;0.60;0.10;;;17.00;99.90;;;;;;4955295;29;20870;-71
2023/05/07 05:55:17;;;;;;;0.60;0.10;;;17.00;99.90;;;;;;4954581;29;20545;-72
2023/05/07 05:57:45;;;;;;;0.93;0.93;;;17.00;99.90;;;;;;4954903;29;20461;-73
2023/05/07 06:00:13;;;;;;;0.60;0.20;;;17.10;99.90;;;;;;4951328;28;20545;-71
2023/05/07 06:02:43;;;;;;;1.30;1.20;;;17.10;99.90;;;;;;4954105;29;20439;-70
2023/05/07 06:05:11;;;;;;;0.60;0.10;;;17.20;99.90;;;;;;4954979;28;20468;-72
2023/05/07 06:07:39;;;;;;;0.60;0.20;;;17.20;99.90;;;;;;4955226;28;20541;-70
2023/05/07 06:10:08;;;;;;;0.60;0.10;;;17.10;99.90;;;;;;4956174;28;20946;-70
2023/05/07 06:12:36;;;;;;;0.70;0.40;;;17.20;99.90;;;;;;4959722;28;20453;-70
2023/05/07 06:15:05;;;;;;;0.60;0.10;;;17.30;99.90;;;;;;4954332;28;20486;-71
2023/05/07 06:17:33;;;;;;;0.60;0.10;;;17.30;99.90;;;;;;4954809;29;20486;-70
2023/05/07 06:20:02;;;;;;;0.60;0.10;;;17.30;99.90;;;;;;4955192;29;20456;-70
2023/05/07 06:22:30;;;;;;;0.60;0.20;;;17.30;99.90;;;;;;4954797;29;20443;-71
2023/05/07 06:24:58;;;;;;;0.60;0.10;;;17.30;99.90;;;;;;4954621;28;20466;-70
2023/05/07 06:27:25;;;;;;;0.60;0.20;;;17.40;99.90;;;;;;4954368;28;21030;-71
2023/05/07 06:29:54;;;;;;;0.60;0.20;;;17.40;99.90;;;;;;4957252;29;20454;-71
2023/05/07 06:32:22;;;;;;;0.60;0.10;;;17.40;99.90;;;;;;4960509;29;20984;-72
2023/05/07 06:34:50;;;;;;;0.80;0.20;;;17.30;99.90;;;;;;4957592;29;20497;-73
2023/05/07 06:37:19;;;;;;;0.60;0.10;;;17.20;99.90;;;;;;4955837;28;20516;-71
2023/05/07 06:39:47;;;;;;;0.60;0.10;;;17.30;99.90;;;;;;4955165;28;20943;-72
2023/05/07 06:42:15;;;;;;;0.97;0.87;;;17.30;99.90;;;;;;4954285;29;20479;-71
2023/05/07 06:44:42;;;;;;;0.60;0.10;;;17.40;99.90;;;;;;4955741;29;20509;-71
2023/05/07 06:47:10;;;;;;;0.60;0.10;;;17.40;99.90;;;;;;4962133;28;20873;-71
2023/05/07 06:49:41;;;;;;;0.60;0.10;;;17.30;99.90;;;;;;4962882;29;20506;-72
2023/05/07 06:52:09;;;;;;;0.60;0.27;;;17.30;99.90;;;;;;4965179;29;20457;-71
2023/05/07 06:54:38;;;;;;;0.60;0.10;;;17.30;99.90;;;;;;4963351;29;20475;-72
2023/05/07 06:57:07;;;;;;;0.60;0.10;;;17.40;99.90;;;;;;4962219;28;20486;-70
2023/05/07 06:59:35;;;;;;;0.60;0.20;;;;;;;;;;4968142;29;20460;-72
2023/05/07 07:02:03;;;;;;;0.60;0.10;;;17.50;99.90;;;;;;4962873;29;20457;-71
2023/05/07 07:04:31;;;;;;;0.60;0.20;;;17.50;99.90;;;;;;4961463;29;20457;-71
2023/05/07 07:06:59;;;;;;;0.60;0.20;;;17.50;99.90;;;;;;4959436;28;20537;-71
2023/05/07 07:09:26;;;;;;;0.60;0.10;;;17.50;99.90;;;;;;4959607;29;20962;-72
2023/05/07 07:11:56;;;;;;;0.60;0.17;;;17.60;99.90;;;;;;4975485;28;20531;-73
2023/05/07 07:14:23;;;;;;;0.60;0.10;;;17.70;99.90;;;;;;4978077;28;20519;-71
2023/05/07 07:16:51;;;;;;;0.80;0.60;;;17.70;99.90;;;;;;4978412;28;20512;-73
2023/05/07 07:19:20;;;;;;;0.60;0.10;;;17.70;99.90;;;;;;4960048;28;20453;-71
2023/05/07 07:21:47;;;;;;;0.60;0.20;;;17.70;99.90;;;;;;4958541;29;20454;-70
2023/05/07 07:24:18;;;;;;;0.60;0.20;;;17.90;99.90;;;;;;4958523;29;20458;-71
2023/05/07 07:26:46;;;;;;;0.90;0.77;;;18.00;99.90;;;;;;4958712;28;20518;-72
2023/05/07 07:29:15;;;;;;;0.60;0.30;;;18.00;99.90;;;;;;4959095;29;20457;-71
2023/05/07 07:31:43;;;;;;;0.60;0.13;;;18.00;99.90;;;;;;4958124;29;20457;-73
2023/05/07 07:34:11;;;;;;;0.60;0.20;;;18.10;99.90;;;;;;4957877;29;20473;-72
2023/05/07 07:36:39;;;;;;;0.60;0.10;;;18.30;99.90;;;;;;4957955;28;20490;-72
2023/05/07 07:39:13;;;;;;;0.60;0.20;;;18.30;99.90;;;;;;4958671;29;20450;-72
2023/05/07 07:41:41;;;;;;;0.60;0.10;;;18.40;99.90;;;;;;4954095;29;20466;-72
2023/05/07 07:44:12;;;;;;;0.70;0.30;;;18.40;99.90;;;;;;4959509;28;20458;-72
2023/05/07 07:46:44;;;;;;;0.70;0.30;;;18.50;99.90;;;;;;4964078;28;20489;-72
2023/05/07 07:49:12;;;;;;;0.60;0.10;;;18.50;99.90;;;;;;4966455;29;20752;-72
2023/05/07 07:51:40;;;;;;;0.60;0.20;;;18.60;99.90;;;;;;4967498;29;20456;-73
2023/05/07 07:54:08;;;;;;;0.60;0.10;;;18.70;99.90;;;;;;4966604;29;20520;-73
2023/05/07 07:56:36;;;;;;;1.20;0.90;;;18.80;99.90;;;;;;4970023;28;20560;-72
2023/05/07 07:59:03;;;;;;;0.60;0.10;;;18.80;99.90;;;;;;4967000;28;20810;-72
2023/05/07 08:01:31;;;;;;;0.60;0.20;;;18.80;99.90;;;;;;4967981;28;20463;-72
2023/05/07 08:04:03;;;;;;;0.87;0.67;;;18.80;99.90;;;;;;4967826;29;20449;-71
2023/05/07 08:06:31;;;;;;;0.60;0.20;;;19.00;99.90;;;;;;4969269;28;20466;-73
2023/05/07 08:09:00;;;;;;;0.60;0.20;;;19.00;99.90;;;;;;4967206;28;20959;-72
2023/05/07 08:11:28;;;;;;;0.60;0.10;;;19.10;99.90;;;;;;4982108;28;20477;-72
2023/05/07 08:13:56;;;;;;;0.60;0.17;;;19.20;99.90;;;;;;4967343;28;20466;-71
2023/05/07 08:16:25;;;;;;;2.60;1.60;;;19.30;99.90;;;;;;4975184;28;20865;-69
2023/05/07 08:18:53;;;;;;;0.60;0.10;;;19.30;99.90;;;;;;4983071;28;20457;-72
2023/05/07 08:21:23;;;;;;;0.60;0.20;;;19.40;99.90;;;;;;4987622;28;20457;-71
2023/05/07 08:23:51;;;;;;;0.60;0.20;;;19.40;99.90;;;;;;4987765;28;20537;-72
2023/05/07 08:26:24;;;;;;;0.60;0.10;;;19.60;99.90;;;;;;4980592;28;20485;-74
2023/05/07 08:28:52;;;;;;;0.60;0.10;;;19.50;99.90;;;;;;4965414;28;20592;-71
2023/05/07 08:31:20;;;;;;;0.60;0.17;;;19.70;99.90;;;;;;4967058;28;20467;-73
2023/05/07 08:33:48;;;;;;;0.60;0.10;;;19.70;99.90;;;;;;4960622;28;20984;-73
2023/05/07 08:36:16;;;;;;;0.60;0.20;;;19.70;99.90;;;;;;4959460;28;20474;-75
2023/05/07 08:38:45;;;;;;;0.77;0.30;;;19.70;99.90;;;;;;4959661;28;20495;-74
2023/05/07 08:41:13;;;;;;;0.60;0.10;;;19.70;99.90;;;;;;4972638;28;20534;-75
2023/05/07 08:43:42;;;;;;;0.60;0.20;;;19.70;99.90;;;;;;4967110;28;20450;-72
2023/05/07 08:46:11;;;;;;;0.60;0.20;;;19.70;99.90;;;;;;4964622;28;20478;-72
2023/05/07 08:48:40;;;;;;;0.60;0.20;;;19.70;99.90;;;;;;4968018;28;20446;-73
2023/05/07 08:51:07;;;;;;;0.60;0.10;;;19.70;99.90;;;;;;4968248;28;20822;-71
2023/05/07 08:53:36;;;;;;;1.57;0.87;;;19.70;99.90;;;;;;4972698;28;20965;-73
2023/05/07 08:56:07;;;;;;;0.60;0.20;;;19.70;99.90;;;;;;4966391;28;20489;-73
2023/05/07 08:58:35;;;;;;;0.60;0.10;;;19.80;99.90;;;;;;4967913;28;20489;-73
2023/05/07 09:01:07;;;;;;;0.60;0.20;;;19.90;99.90;;;;;;4969933;28;20447;-74
2023/05/07 09:03:35;;;;;;;0.60;0.10;;;19.90;99.90;;;;;;4965776;28;20443;-73
2023/05/07 09:06:04;;;;;;;0.60;0.10;;;20.10;99.90;;;;;;4962494;28;20957;-74
2023/05/07 09:08:34;;;;;;;0.97;0.40;;;20.20;99.90;;;;;;4968344;28;20440;-73
2023/05/07 09:11:03;;;;;;;0.60;0.30;;;20.30;99.90;;;;;;4960355;28;20443;-75
2023/05/07 09:13:32;;;;;;;0.60;0.10;;;20.30;99.90;;;;;;4972653;28;20849;-74
2023/05/07 09:16:11;;;;;;;1.67;0.40;;;20.50;99.90;;;;;;4961146;28;20568;-72
2023/05/07 09:18:42;;;;;;;0.60;0.30;;;20.50;99.90;;;;;;4967134;28;20882;-74
2023/05/07 09:21:16;;;;;;;0.60;0.10;;;20.50;99.90;;;;;;4965812;28;20477;-73
2023/05/07 09:23:44;;;;;;;0.70;0.37;;;20.60;99.90;;;;;;4974886;28;20447;-72
2023/05/07 09:26:12;;;;;;;0.93;0.77;;;20.80;99.90;;;;;;4970018;28;20475;-72
2023/05/07 09:28:42;;;;;;;0.60;0.20;;;20.80;99.90;;;;;;4965899;28;20461;-70
2023/05/07 09:31:11;;;;;;;0.60;0.10;;;20.90;99.90;;;;;;4962602;28;20498;-73
2023/05/07 09:33:40;;;;;;;0.60;0.20;;;20.90;99.90;;;;;;4972863;28;20493;-74
2023/05/07 09:36:09;;;;;;;0.60;0.10;;;20.90;99.90;;;;;;4962553;28;20513;-72
2023/05/07 09:38:38;;;;;;;0.60;0.10;;;20.90;99.90;;;;;;4966403;28;20991;-72
2023/05/07 09:41:08;;;;;;;1.03;0.67;;;21.00;99.90;;;;;;4972063;28;20468;-72
2023/05/07 09:43:36;;;;;;;0.60;0.20;;;20.90;99.90;;;;;;4967533;28;20455;-72
2023/05/07 09:46:12;;;;;;;0.60;0.17;;;21.10;99.90;;;;;;4979398;28;20857;-73
2023/05/07 09:48:47;;;;;;;0.83;0.80;;;21.10;99.90;;;;;;4956411;28;20475;-71
2023/05/07 09:51:26;;;;;;;0.60;0.10;;;21.20;99.90;;;;;;4957671;28;20463;-73
2023/05/07 09:53:54;;;;;;;1.00;0.60;;;21.30;99.90;;;;;;4962781;28;20567;-72
2023/05/07 09:56:25;;;;;;;0.60;0.20;;;21.50;99.90;;;;;;4962390;28;20564;-73
2023/05/07 09:58:55;;;;;;;0.60;0.30;;;21.60;99.90;;;;;;4963200;28;20484;-73
2023/05/07 10:01:26;;;;;;;0.60;0.20;;;21.40;99.90;;;;;;4955900;28;20564;-73
2023/05/07 10:03:55;;;;;;;0.60;0.10;;;21.60;99.90;;;;;;4955256;29;20440;-74
2023/05/07 10:06:26;;;;;;;0.60;0.20;;;21.70;99.90;;;;;;4955934;29;20562;-72
2023/05/07 10:08:55;;;;;;;0.70;0.20;;;21.70;99.90;;;;;;4955859;28;20969;-73
2023/05/07 10:11:23;;;;;;;1.10;0.50;;;21.70;99.90;;;;;;4956260;28;20440;-74
2023/05/07 10:13:53;;;;;;;0.70;0.40;;;21.70;99.90;;;;;;4958444;29;20453;-73
2023/05/07 10:16:22;;;;;;;0.70;0.50;;;21.60;99.90;;;;;;4973281;23;20501;-73
2023/05/07 10:18:52;;;;;;;1.23;0.30;;;21.60;99.90;;;;;;4934720;29;20500;-73
2023/05/07 10:21:23;;;;;;;0.60;0.10;;;21.70;99.90;;;;;;4935119;29;20565;-74
2023/05/07 10:23:56;;;;;;;1.00;0.50;;;21.70;99.90;;;;;;4934965;29;20477;-72
2023/05/07 10:26:28;;;;;;;0.60;0.20;;;21.70;99.90;;;;;;4935492;29;20477;-71
2023/05/07 10:29:03;;;;;;;0.97;0.27;;;21.80;99.90;;;;;;4934525;29;20453;-73
2023/05/07 10:31:50;;;;;;;0.60;0.20;;;21.90;99.90;;;;;;4934502;29;20996;-72
2023/05/07 10:34:30;;;;;;;0.60;0.17;;;22.00;99.90;;;;;;4927882;29;20528;-75
2023/05/07 10:37:00;;;;;;;0.67;0.17;;;22.00;99.90;;;;;;4935690;29;20482;-73
2023/05/07 10:39:31;;;;;;;0.60;0.13;;;22.10;99.90;;;;;;4935070;29;20492;-73
2023/05/07 10:42:11;;;;;;;1.57;0.27;;;;;;;;;;4935747;29;20537;-74
2023/05/07 10:44:47;;;;;;;0.70;0.37;;;22.10;99.90;;;;;;4939243;29;20456;-75
2023/05/07 10:47:19;;;;;;;0.60;0.20;;;;;;;;;;4935153;29;20458;-74
2023/05/07 10:50:23;;;;;;;0.60;0.10;;;22.20;99.90;;;;;;4931791;29;20446;-71
2023/05/07 10:53:23;;;;;;;0.60;0.20;;;22.30;99.90;;;;;;4934586;29;20528;-74
2023/05/07 10:55:52;;;;;;;0.60;0.20;;;22.50;99.90;;;;;;4931722;29;20816;-74
2023/05/07 10:58:25;;;;;;;0.60;0.20;;;22.50;99.90;;;;;;4935504;29;20493;-73
2023/05/07 11:01:01;;;;;;;0.60;0.10;;;22.60;99.90;;;;;;4934407;29;20468;-72
2023/05/07 11:03:29;;;;;;;0.60;0.10;;;22.60;99.90;;;;;;4932879;29;20442;-74
2023/05/07 11:06:12;;;;;;;0.60;0.10;;;22.60;99.90;;;;;;4935293;29;20465;-75
2023/05/07 11:08:54;;;;;;;0.63;0.10;;;22.60;99.90;;;;;;4935887;29;20477;-77
2023/05/07 11:11:50;;;;;;;0.70;0.20;;;;;;;;;;4936417;29;20524;-78
2023/05/07 11:14:44;;;;;;;0.60;0.20;;;22.70;99.90;;;;;;4935225;29;20453;-76
2023/05/07 11:17:12;;;;;;;0.80;0.30;;;22.70;99.90;;;;;;4938354;29;20567;-77
2023/05/07 11:19:50;;;;;;;0.60;0.10;;;22.70;99.90;;;;;;4938660;29;20533;-75
2023/05/07 11:22:40;;;;;;;0.70;0.10;;;22.80;99.90;;;;;;4937219;29;20449;-75
2023/05/07 11:25:09;;;;;;;0.70;0.30;;;22.90;99.90;;;;;;4937306;29;20666;-76
2023/05/07 11:27:38;;;;;;;0.60;0.10;;;22.90;99.90;;;;;;4940017;29;21002;-78
2023/05/07 11:30:07;;;;;;;1.33;0.53;;;23.10;99.90;;;;;;4944751;29;20482;-77
2023/05/07 11:32:35;;;;;;;0.70;0.10;;;;;;;;;;4941609;29;20442;-77
2023/05/07 11:35:04;;;;;;;0.67;0.20;;;23.30;99.90;;;;;;4939502;29;20553;-75
2023/05/07 11:37:32;;;;;;;2.50;2.40;;;;;;;;;;4938332;29;20834;-77
2023/05/07 11:40:09;;;;;;;0.70;0.10;;;23.40;99.90;;;;;;4936435;29;21111;-74
2023/05/07 11:42:38;;;;;;;0.70;0.10;;;23.40;99.90;;;;;;4936431;29;20449;-75
2023/05/07 11:45:11;;;;;;;0.70;0.10;;;23.40;99.90;;;;;;4938467;29;20965;-74
2023/05/07 11:47:42;;;;;;;0.80;0.60;;;23.60;99.90;;;;;;4938373;29;20478;-74
2023/05/07 11:50:11;;;;;;;1.40;1.13;;;;;;;;;;4939219;29;20933;-75
2023/05/07 11:52:39;;;;;;;0.70;0.30;;;;;;;;;;4937583;29;20564;-75
2023/05/07 11:55:09;;;;;;;0.70;0.30;;;23.70;99.90;;;;;;4938383;29;20451;-75
2023/05/07 11:57:37;;;;;;;0.70;0.10;;;23.70;99.90;;;;;;4938297;29;20463;-76
2023/05/07 12:00:07;;;;;;;0.70;0.10;;;23.70;99.90;;;;;;4938404;29;20566;-75
2023/05/07 12:02:35;;;;;;;0.70;0.20;;;;;;;;;;4938177;29;20616;-74
2023/05/07 12:05:03;;;;;;;0.70;0.10;;;23.80;99.90;;;;;;4938816;29;20786;-76
2023/05/07 12:07:31;;;;;;;0.70;0.20;;;23.70;99.90;;;;;;4941007;29;20975;-75
2023/05/07 12:09:59;;;;;;;0.70;0.10;;;23.80;99.90;;;;;;4939510;29;20452;-74
2023/05/07 12:12:29;;;;;;;3.00;2.80;;;23.90;99.90;;;;;;4938391;29;20447;-75
2023/05/07 12:14:57;;;;;;;0.70;0.10;;;;;;;;;;4939943;29;20870;-75
2023/05/07 12:17:25;;;;;;;0.70;0.20;;;;;;;;;;4938391;29;21013;-74
2023/05/07 12:19:54;;;;;;;0.70;0.20;;;;;;;;;;4940776;29;20514;-75
2023/05/07 12:22:30;;;;;;;0.70;0.10;;;24.20;99.90;;;;;;4939557;29;20450;-78
2023/05/07 12:24:59;;;;;;;0.70;0.13;;;24.30;99.90;;;;;;4939830;29;20522;-75
2023/05/07 12:27:30;;;;;;;0.80;0.20;;;24.50;99.90;;;;;;4943272;29;20475;-75
2023/05/07 12:29:59;;;;;;;0.70;0.10;;;24.60;99.90;;;;;;4945965;29;20447;-74
2023/05/07 12:32:27;;;;;;;0.70;0.20;;;24.70;99.90;;;;;;4943839;29;20455;-74
2023/05/07 12:34:55;;;;;;;0.70;0.20;;;24.50;99.90;;;;;;4939410;29;20458;-74
2023/05/07 12:37:25;;;;;;;0.70;0.13;;;24.50;99.90;;;;;;4939248;29;20478;-77
2023/05/07 12:40:06;;;;;;;0.87;0.27;;;24.70;99.90;;;;;;4938043;29;20493;-77
2023/05/07 12:42:37;;;;;;;0.70;0.20;;;24.60;99.90;;;;;;4939728;29;20517;-78
2023/05/07 12:45:12;;;;;;;0.80;0.40;;;24.60;99.90;;;;;;4942537;29;20463;-76
2023/05/07 12:47:45;;;;;;;1.00;0.30;;;24.50;99.90;;;;;;4939283;29;20502;-76
2023/05/07 12:50:14;;;;;;;0.70;0.30;;;24.50;99.90;;;;;;4938190;29;20526;-75
2023/05/07 12:52:42;;;;;;;1.43;1.33;;;;;;;;;;4938498;29;20960;-79
2023/05/07 12:55:13;;;;;;;2.43;0.97;;;24.40;99.90;;;;;;4940157;28;20527;-78
2023/05/07 12:57:43;;;;;;;1.00;0.60;;;24.40;99.90;;;;;;4940342;28;20525;-77
2023/05/07 13:00:12;;;;;;;0.90;0.57;;;24.30;99.90;;;;;;4939854;29;20499;-76
2023/05/07 13:02:44;;;;;;;1.47;0.70;;;24.10;99.90;;;;;;4937891;29;20440;-77
2023/05/07 13:05:12;;;;;;;0.70;0.20;;;;;;;;;;4937394;29;20462;-77
2023/05/07 13:07:41;;;;;;;0.70;0.20;;;;;;;;;;4936362;29;20466;-77
2023/05/07 13:10:10;;;;;;;0.70;0.20;;;;;;;;;;4936163;29;20467;-77
2023/05/07 13:12:38;;;;;;;0.80;0.33;;;;;;;;;;4936410;29;20508;-78
2023/05/07 13:15:08;;;;;;;0.70;0.20;;;24.80;99.90;;;;;;4935510;29;21036;-77
2023/05/07 13:17:37;;;;;;;0.70;0.20;;;24.90;99.90;;;;;;4938025;29;20487;-77
2023/05/07 13:20:06;;;;;;;0.70;0.10;;;25.00;99.90;;;;;;4936126;29;20518;-77
2023/05/07 13:25:33;;;;;;;0.70;0.20;;;;;;;;;;4931932;29;20456;-79
2023/05/07 13:28:02;;;;;;;0.80;0.30;;;24.90;99.90;;;;;;4938945;29;20558;-77
2023/05/07 13:30:40;;;;;;;1.43;1.33;;;24.80;99.90;;;;;;4939596;29;20450;-78
2023/05/07 13:36:02;;;;;;;0.70;0.20;;;;;;;;;;4944449;29;20815;-78
2023/05/07 13:38:29;;;;;;;0.70;0.10;;;24.70;99.90;;;;;;4940327;29;20455;-77
2023/05/07 13:40:57;;;;;;;0.70;0.20;;;24.50;99.90;;;;;;4937549;29;20897;-75
2023/05/07 13:43:26;;;;;;;0.70;0.20;;;24.40;99.90;;;;;;4936127;29;20540;-75
2023/05/07 13:45:55;;;;;;;0.70;0.20;;;24.30;99.90;;;;;;4935945;29;20471;-74
2023/05/07 13:48:23;;;;;;;0.70;0.20;;;24.30;99.90;;;;;;4936510;29;20806;-74
2023/05/07 13:50:51;;;;;;;0.70;0.10;;;;;;;;;;4935444;29;20458;-75
2023/05/07 13:53:20;;;;;;;0.80;0.43;;;;;;;;;;4931532;29;20451;-76
2023/05/07 13:55:48;;;;;;;1.07;0.40;;;;;;;;;;4939101;29;20861;-78
2023/05/07 13:58:16;;;;;;;0.80;0.60;;;;;;;;;;4936696;29;20844;-76
2023/05/07 14:00:44;;;;;;;0.70;0.10;;;;;;;;;;4935855;29;20498;-74
2023/05/07 14:03:13;;;;;;;0.70;0.10;;;24.90;99.90;;;;;;4935346;29;20453;-74
2023/05/07 14:05:41;;;;;;;0.90;0.50;;;26.00;99.90;;;;;;4935694;29;20467;-75
2023/05/07 14:08:10;;;;;;;0.70;0.10;;;;;;;;;;4936191;29;20881;-75
2023/05/07 14:10:38;;;;;;;0.70;0.20;;;;;;;;;;4935921;29;20520;-74
2023/05/07 14:13:06;;;;;;;1.10;0.30;;;25.00;99.90;;;;;;4936479;29;20791;-77
2023/05/07 14:15:35;;;;;;;0.70;0.20;;;;;;;;;;4935827;29;20955;-75
2023/05/07 14:18:03;;;;;;;0.70;0.30;;;;;;;;;;4936181;29;20455;-74
2023/05/07 14:20:37;;;;;;;0.70;0.13;;;;;;;;;;4935203;29;21085;-77
2023/05/07 14:23:06;;;;;;;0.70;0.20;;;24.70;99.90;;;;;;4935827;29;20454;-75
2023/05/07 14:25:34;;;;;;;1.03;0.63;;;;;;;;;;4935146;29;20498;-73
2023/05/07 14:28:02;;;;;;;1.07;0.67;;;24.20;99.90;;;;;;4935398;29;20458;-77
2023/05/07 14:30:30;;;;;;;1.07;0.40;;;24.00;99.90;;;;;;4935546;29;20819;-74
2023/05/07 14:32:58;;;;;;;0.70;0.10;;;23.90;99.90;;;;;;4935019;29;20459;-73
2023/05/07 14:35:26;;;;;;;0.70;0.10;;;23.90;99.90;;;;;;4935164;29;20451;-74
2023/05/07 14:37:55;;;;;;;0.70;0.20;;;23.80;99.90;;;;;;4935025;29;21003;-74
2023/05/07 14:40:23;;;;;;;0.70;0.10;;;;;;;;;;4935834;29;20546;-75
2023/05/07 14:42:51;;;;;;;0.70;0.20;;;;;;;;;;4934849;29;20463;-73
2023/05/07 14:45:19;;;;;;;1.00;0.63;;;;;;;;;;4935678;29;20506;-74
2023/05/07 14:48:33;;;;;;;0.70;0.20;;;25.40;99.90;;;;;;4935557;29;20482;-79
2023/05/07 14:51:11;;;;;;;0.70;0.20;;;;;;;;;;4936503;29;20470;-72
2023/05/07 14:53:49;;;;;;;0.70;0.20;;;24.00;99.90;;;;;;4938146;29;20521;-71
2023/05/07 14:56:50;;;;;;;0.70;0.10;;;23.90;99.90;;;;;;4916631;29;20496;-75
2023/05/07 14:59:46;;;;;;;0.80;0.30;;;;;;;;;;4923971;29;20473;-74
2023/05/07 15:02:19;;;;;;;0.70;0.30;;;;;;;;;;4934656;29;20787;-74
2023/05/07 15:05:04;;;;;;;0.70;0.20;;;;;;;;;;4900832;29;20466;-73
2023/05/07 15:07:32;;;;;;;0.70;0.20;;;23.80;99.90;;;;;;4934925;29;20478;-72
2023/05/07 15:10:02;;;;;;;0.70;0.20;;;23.80;99.90;;;;;;4939663;29;20837;-75
2023/05/07 15:12:42;;;;;;;0.70;0.20;;;;;;;;;;4937033;29;20447;-78
2023/05/07 15:15:13;;;;;;;2.70;0.83;;;23.80;99.90;;;;;;4918418;29;20917;-72
2023/05/07 15:17:41;;;;;;;0.70;0.20;;;23.80;99.90;;;;;;4935552;29;20475;-77
2023/05/07 15:20:10;;;;;;;0.80;0.20;;;23.80;99.90;;;;;;4943811;29;20458;-73
2023/05/07 15:22:45;;;;;;;15.33;7.20;;;23.80;99.90;;;;;;4938225;29;20485;-75
2023/05/07 15:25:26;;;;;;;0.70;0.20;;;;;;;;;;4941304;29;20533;-72
2023/05/07 15:28:09;;;;;;;1.13;0.60;;;;;;;;;;4932474;29;20454;-71
2023/05/07 15:30:37;;;;;;;0.70;0.30;;;;;;;;;;4938521;29;20490;-72
2023/05/07 15:33:05;;;;;;;0.90;0.70;;;;;;;;;;4938045;29;20465;-72
2023/05/07 15:38:40;;;;;;;0.70;0.20;;;;;;;;;;4934656;29;20474;-72
2023/05/07 15:41:10;;;;;;;1.00;0.40;;;23.40;99.90;;;;;;4938037;29;20449;-74
2023/05/07 15:43:45;;;;;;;0.70;0.20;;;23.30;99.90;;;;;;4937811;29;20452;-74
2023/05/07 15:46:13;;;;;;;0.80;0.33;;;;;;;;;;4940023;29;20469;-72
2023/05/07 15:48:42;;;;;;;0.70;0.10;;;;;;;;;;4939295;29;20546;-73
2023/05/07 15:51:10;;;;;;;0.70;0.10;;;23.30;99.90;;;;;;4939843;29;20535;-73
2023/05/07 15:56:28;;;;;;;0.70;0.20;;;23.20;99.90;;;;;;4935267;29;20992;-77
2023/05/07 15:59:05;;;;;;;0.90;0.47;;;;;;;;;;4940155;29;20557;-74
2023/05/07 16:01:33;;;;;;;4.70;3.50;;;;;;;;;;4942633;29;20468;-72
2023/05/07 16:04:02;;;;;;;4.03;3.63;;;;;;;;;;4939834;29;20454;-72
2023/05/07 16:06:31;;;;;;;0.70;0.20;;;;;;;;;;4939433;29;20505;-75
2023/05/07 16:08:59;;;;;;;0.70;0.20;;;23.10;99.90;;;;;;4940002;29;20462;-73
2023/05/07 16:11:29;;;;;;;0.70;0.20;;;23.10;99.90;;;;;;4940641;29;20531;-72
2023/05/07 16:13:58;;;;;;;0.87;0.33;;;23.10;99.90;;;;;;4945609;29;20459;-75
2023/05/07 16:16:28;;;;;;;0.70;0.20;;;;;;;;;;4945737;29;20485;-74
2023/05/07 16:18:56;;;;;;;0.80;0.40;;;23.20;99.90;;;;;;4992567;23;20498;-75
2023/05/07 16:21:24;;;;;;;0.70;0.20;;;23.20;99.90;;;;;;4976681;28;20521;-76
2023/05/07 16:23:52;;;;;;;0.73;0.23;;;23.10;99.90;;;;;;4976921;28;20459;-75
2023/05/07 16:26:20;;;;;;;0.70;0.20;;;23.10;99.90;;;;;;4980774;28;20440;-75
2023/05/07 16:28:50;;;;;;;0.70;0.10;;;23.00;99.90;;;;;;4980807;28;20474;-76
2023/05/07 16:31:18;;;;;;;0.70;0.30;;;23.00;99.90;;;;;;4977094;28;20479;-76
2023/05/07 16:33:46;;;;;;;0.70;0.10;;;22.90;99.90;;;;;;4975877;28;20526;-77
2023/05/07 16:36:14;;;;;;;0.70;0.10;;;22.90;99.90;;;;;;4976134;28;20445;-77
2023/05/07 16:38:42;;;;;;;0.80;0.40;;;22.90;99.90;;;;;;4978285;28;20548;-80
2023/05/07 16:41:10;;;;;;;0.70;0.10;;;22.90;99.90;;;;;;4969973;28;21091;-76
2023/05/07 16:43:38;;;;;;;0.70;0.20;;;22.80;99.90;;;;;;4971698;28;20464;-76
2023/05/07 16:46:07;;;;;;;0.70;0.20;;;22.70;99.90;;;;;;4975649;28;20456;-75
2023/05/07 16:48:35;;;;;;;0.60;0.10;;;;;;;;;;4976143;28;20853;-76
2023/05/07 16:51:03;;;;;;;0.70;0.10;;;22.80;99.90;;;;;;4976410;28;20506;-77
2023/05/07 16:53:31;;;;;;;0.70;0.10;;;22.80;99.90;;;;;;4969361;28;20469;-76
2023/05/07 16:55:59;;;;;;;0.70;0.20;;;22.80;99.90;;;;;;4976622;28;20459;-76
2023/05/07 16:58:27;;;;;;;0.70;0.20;;;22.80;99.90;;;;;;4985940;28;20488;-76
2023/05/07 17:00:55;;;;;;;0.67;0.20;;;22.70;99.90;;;;;;4981808;28;20461;-76
2023/05/07 17:03:24;;;;;;;1.67;0.87;;;22.60;99.90;;;;;;4977258;28;20760;-76
2023/05/07 17:05:52;;;;;;;0.70;0.20;;;22.60;99.90;;;;;;4977025;28;20453;-76
2023/05/07 17:08:20;;;;;;;0.60;0.20;;;22.60;99.90;;;;;;4976648;28;20973;-74
2023/05/07 17:10:48;;;;;;;0.70;0.20;;;22.60;99.90;;;;;;4976397;28;20440;-75
2023/05/07 17:13:16;;;;;;;0.67;0.20;;;22.60;99.90;;;;;;4975275;28;20969;-76
2023/05/07 17:15:46;;;;;;;0.70;0.10;;;22.70;99.90;;;;;;4977667;28;20456;-75
2023/05/07 17:18:14;;;;;;;0.70;0.30;;;22.30;99.90;;;;;;4977051;28;20563;-76
2023/05/07 17:20:43;;;;;;;0.60;0.20;;;22.30;99.90;;;;;;4977106;28;20491;-74
2023/05/07 17:23:12;;;;;;;0.70;0.20;;;21.50;99.90;;;;;;4976685;28;20483;-77
2023/05/07 17:25:44;;;;;;;1.30;0.63;;;21.20;99.90;;;;;;4978351;28;20641;-77
2023/05/07 17:28:12;;;;;;;0.80;0.60;;;20.60;99.90;;;;;;4978003;28;20533;-76
2023/05/07 17:30:40;;;;;;;0.60;0.20;;;20.50;99.90;;;;;;4978527;28;20487;-76